Time;durP1;ratioP1;P1;durP2;ratioP2;P2;SDS_P1;SDS_P2;PMS_P1;PMS_P2;Temp;Humidity;BMP_temperature;BMP_pressure;BME280_temperature;BME280_humidity;BME280_pressure;Samples;Min_cycle;Max_cycle;Signal;HPM_P1;HPM_P2
2023/06/23 00:01:59;;;;;;;4.35;2.13;;;21.80;99.90;;;;;;5060498;28;20029;-83
2023/06/23 00:04:24;;;;;;;3.20;1.77;;;21.70;99.90;;;;;;5042275;28;20066;-84
2023/06/23 00:06:50;;;;;;;4.20;1.70;;;21.70;99.90;;;;;;5060210;28;20053;-84
2023/06/23 00:09:17;;;;;;;1.42;1.17;;;21.70;99.90;;;;;;5059935;28;20029;-84
2023/06/23 00:11:43;;;;;;;1.55;1.17;;;21.60;99.90;;;;;;5039776;28;20025;-84
2023/06/23 00:14:10;;;;;;;2.30;1.40;;;21.60;99.90;;;;;;5055610;28;20067;-84
2023/06/23 00:16:39;;;;;;;2.10;1.42;;;21.60;99.90;;;;;;5037043;28;20501;-84
2023/06/23 00:19:06;;;;;;;2.60;1.48;;;21.70;99.90;;;;;;5037935;28;20051;-84
2023/06/23 00:21:32;;;;;;;3.95;1.38;;;21.70;99.90;;;;;;5036979;28;20025;-84
2023/06/23 00:23:58;;;;;;;2.65;1.50;;;21.60;99.90;;;;;;5038100;28;20462;-84
2023/06/23 00:26:26;;;;;;;3.45;1.80;;;21.60;99.90;;;;;;5037210;28;20092;-85
2023/06/23 00:28:51;;;;;;;2.55;1.50;;;21.60;99.90;;;;;;5038024;28;20025;-83
2023/06/23 00:31:17;;;;;;;2.50;1.83;;;21.60;99.90;;;;;;5038010;28;20021;-84
2023/06/23 00:33:43;;;;;;;2.70;2.00;;;21.50;99.90;;;;;;5036858;28;20071;-84
2023/06/23 00:36:09;;;;;;;3.17;1.70;;;21.50;99.90;;;;;;5037965;28;20025;-83
2023/06/23 00:38:34;;;;;;;3.53;2.10;;;21.40;99.90;;;;;;5037432;28;20505;-84
2023/06/23 00:41:01;;;;;;;4.10;2.10;;;21.30;99.90;;;;;;5037478;28;20106;-83
2023/06/23 00:43:30;;;;;;;2.58;2.00;;;21.10;99.90;;;;;;5057734;28;20478;-84
2023/06/23 00:45:57;;;;;;;2.50;1.98;;;21.00;99.90;;;;;;5041315;28;20457;-83
2023/06/23 00:48:24;;;;;;;3.90;2.28;;;21.00;99.90;;;;;;5040595;28;20029;-83
2023/06/23 00:50:49;;;;;;;3.65;2.10;;;20.90;99.90;;;;;;5039957;28;20033;-84
2023/06/23 00:53:17;;;;;;;3.33;2.40;;;20.70;99.90;;;;;;5055947;28;20028;-84
2023/06/23 00:55:44;;;;;;;3.45;2.30;;;20.60;99.90;;;;;;5037467;28;20020;-84
2023/06/23 00:58:10;;;;;;;3.92;2.20;;;20.40;99.90;;;;;;5055675;28;20025;-84
2023/06/23 01:00:35;;;;;;;4.70;2.60;;;20.40;99.90;;;;;;5039273;28;20036;-84
2023/06/23 01:03:02;;;;;;;3.63;2.65;;;20.40;99.90;;;;;;5039503;28;20124;-84
2023/06/23 01:05:37;;;;;;;6.40;3.55;;;20.40;99.90;;;;;;5038134;28;20032;-83
2023/06/23 01:08:25;;;;;;;4.38;2.83;;;20.30;99.90;;;;;;5055025;28;20029;-84
2023/06/23 01:11:08;;;;;;;2.65;2.15;;;20.20;99.90;;;;;;5037814;28;20496;-84
2023/06/23 01:13:53;;;;;;;3.67;2.42;;;20.20;99.90;;;;;;5036860;28;20116;-84
2023/06/23 01:16:19;;;;;;;2.67;2.22;;;20.20;99.90;;;;;;5037421;28;20390;-83
2023/06/23 01:18:58;;;;;;;3.90;2.70;;;20.20;99.90;;;;;;5054260;28;20041;-84
2023/06/23 01:21:50;;;;;;;5.32;2.30;;;20.10;99.90;;;;;;5054654;28;20040;-84
2023/06/23 01:24:39;;;;;;;3.88;2.60;;;20.00;99.90;;;;;;4991320;28;20064;-84
2023/06/23 01:27:11;;;;;;;4.03;2.63;;;19.90;99.90;;;;;;5036946;28;20025;-84
2023/06/23 01:29:38;;;;;;;;;;;20.00;99.90;;;;;;5054731;28;20032;-84
2023/06/23 01:32:15;;;;;;;4.18;2.60;;;20.10;99.90;;;;;;5055050;28;19995;-84
2023/06/23 01:34:46;;;;;;;3.90;2.70;;;20.10;99.90;;;;;;5036609;28;20124;-84
2023/06/23 01:37:18;;;;;;;5.55;2.90;;;19.90;99.90;;;;;;5036656;28;20465;-84
2023/06/23 01:39:47;;;;;;;3.80;2.85;;;19.90;99.90;;;;;;5053579;28;20025;-84
2023/06/23 01:42:18;;;;;;;6.70;3.47;;;20.00;99.90;;;;;;5036363;28;20029;-84
2023/06/23 01:44:48;;;;;;;5.43;3.20;;;20.00;99.90;;;;;;5035986;28;20102;-85
2023/06/23 01:47:21;;;;;;;4.82;3.05;;;20.10;99.90;;;;;;5036270;28;20029;-84
2023/06/23 01:49:48;;;;;;;5.70;2.85;;;20.00;99.90;;;;;;5037263;28;20127;-84
2023/06/23 01:52:16;;;;;;;4.72;3.38;;;20.10;99.90;;;;;;5037839;28;20032;-84
2023/06/23 01:54:43;;;;;;;6.55;3.50;;;20.10;99.90;;;;;;5055530;28;20040;-85
2023/06/23 01:57:13;;;;;;;5.38;3.65;;;20.00;99.90;;;;;;5054806;28;20029;-84
2023/06/23 01:59:42;;;;;;;4.10;3.05;;;19.90;99.90;;;;;;5054101;28;20045;-85
2023/06/23 02:02:09;;;;;;;6.30;3.53;;;19.90;99.90;;;;;;5036474;28;20033;-85
2023/06/23 02:04:35;;;;;;;5.43;3.55;;;19.90;99.90;;;;;;5036368;28;20029;-84
2023/06/23 02:07:01;;;;;;;6.75;3.95;;;19.90;99.90;;;;;;5054352;28;20028;-84
2023/06/23 02:09:29;;;;;;;6.63;4.28;;;19.90;99.90;;;;;;5053837;28;20029;-84
2023/06/23 02:11:57;;;;;;;6.28;4.25;;;19.90;99.90;;;;;;5036903;28;20433;-84
2023/06/23 02:14:25;;;;;;;7.00;4.20;;;19.90;99.90;;;;;;5036789;28;20029;-84
2023/06/23 02:16:53;;;;;;;6.93;4.22;;;19.90;99.90;;;;;;5055114;28;20112;-84
2023/06/23 02:19:20;;;;;;;6.95;4.45;;;19.90;99.90;;;;;;5054693;28;20056;-84
2023/06/23 02:21:46;;;;;;;6.45;4.88;;;19.80;99.90;;;;;;5037203;28;20036;-85
2023/06/23 02:24:14;;;;;;;8.90;5.22;;;19.80;99.90;;;;;;5058476;28;20373;-84
2023/06/23 02:26:41;;;;;;;8.68;4.88;;;19.80;99.90;;;;;;5040208;28;20053;-85
2023/06/23 02:29:08;;;;;;;7.25;5.30;;;19.80;99.90;;;;;;5059177;28;20029;-84
2023/06/23 02:31:34;;;;;;;8.57;5.07;;;19.80;99.90;;;;;;5058308;28;20489;-84
2023/06/23 02:34:00;;;;;;;6.55;4.32;;;19.60;99.90;;;;;;5058652;28;20031;-84
2023/06/23 02:36:32;;;;;;;7.82;4.63;;;19.70;99.90;;;;;;5041099;28;20047;-83
2023/06/23 02:39:00;;;;;;;7.75;4.35;;;19.60;99.90;;;;;;5058940;28;20044;-85
2023/06/23 02:41:30;;;;;;;5.72;4.10;;;19.50;99.90;;;;;;5058943;28;20028;-84
2023/06/23 02:44:00;;;;;;;6.25;4.25;;;19.60;99.90;;;;;;5041115;28;20474;-84
2023/06/23 02:46:31;;;;;;;6.05;3.83;;;19.60;99.90;;;;;;5058209;28;20378;-84
2023/06/23 02:49:03;;;;;;;6.32;3.90;;;19.70;99.90;;;;;;5040760;28;20046;-84
2023/06/23 02:51:30;;;;;;;7.22;4.03;;;19.70;99.90;;;;;;5039791;28;20091;-84
2023/06/23 02:54:01;;;;;;;6.50;4.20;;;19.70;99.90;;;;;;5040140;28;20473;-84
2023/06/23 02:56:28;;;;;;;8.00;4.30;;;19.70;99.90;;;;;;5040377;28;20049;-84
2023/06/23 02:59:01;;;;;;;6.25;4.20;;;19.70;99.90;;;;;;5040021;28;20504;-84
2023/06/23 03:01:29;;;;;;;6.93;4.72;;;19.60;99.90;;;;;;5039611;28;20053;-84
2023/06/23 03:03:56;;;;;;;8.85;4.25;;;19.60;99.90;;;;;;5057203;28;20025;-84
2023/06/23 03:06:23;;;;;;;7.57;4.68;;;19.60;99.90;;;;;;5039795;28;20031;-85
2023/06/23 03:08:50;;;;;;;7.82;4.68;;;19.60;99.90;;;;;;5039839;28;20052;-84
2023/06/23 03:11:17;;;;;;;11.45;4.68;;;19.60;99.90;;;;;;5039914;28;20454;-85
2023/06/23 03:13:46;;;;;;;7.15;4.75;;;19.60;99.90;;;;;;5039246;28;20037;-85
2023/06/23 03:16:27;;;;;;;9.02;5.10;;;19.60;99.90;;;;;;5039847;28;20102;-85
2023/06/23 03:19:36;;;;;;;8.30;4.65;;;19.60;99.90;;;;;;5039001;28;20127;-85
2023/06/23 03:22:10;;;;;;;10.55;5.10;;;19.60;99.90;;;;;;4957234;29;20043;-85
2023/06/23 03:24:42;;;;;;;6.88;5.10;;;19.60;99.90;;;;;;4940808;29;20118;-85
2023/06/23 03:27:10;;;;;;;8.73;5.30;;;19.60;99.90;;;;;;4941484;29;20079;-85
2023/06/23 03:29:52;;;;;;;8.48;5.32;;;19.60;99.90;;;;;;4968927;28;20043;-84
2023/06/23 03:32:24;;;;;;;8.95;5.50;;;19.60;99.90;;;;;;4959729;28;20069;-84
2023/06/23 03:34:58;;;;;;;8.77;6.00;;;19.60;99.90;;;;;;4974427;28;20039;-84
2023/06/23 03:37:27;;;;;;;8.90;5.93;;;19.70;99.90;;;;;;4959815;28;20030;-84
2023/06/23 03:39:57;;;;;;;7.72;5.53;;;19.70;99.90;;;;;;4975176;28;20097;-84
2023/06/23 03:42:24;;;;;;;8.10;5.50;;;19.80;99.90;;;;;;4960060;28;20035;-84
2023/06/23 03:44:51;;;;;;;8.98;6.15;;;19.80;99.90;;;;;;4959182;28;20211;-84
2023/06/23 03:47:21;;;;;;;9.38;6.10;;;19.90;99.90;;;;;;4960130;28;20034;-84
2023/06/23 03:49:50;;;;;;;11.30;6.57;;;19.80;99.90;;;;;;4959358;28;20066;-84
2023/06/23 03:52:18;;;;;;;10.15;7.03;;;19.80;99.90;;;;;;4990278;28;20047;-84
2023/06/23 03:54:47;;;;;;;9.82;7.00;;;19.80;99.90;;;;;;5054923;28;20028;-85
2023/06/23 03:57:17;;;;;;;11.23;7.75;;;19.80;99.90;;;;;;5055787;28;20039;-86
2023/06/23 03:59:45;;;;;;;11.68;7.47;;;19.80;99.90;;;;;;5055838;28;20071;-85
2023/06/23 04:02:15;;;;;;;13.57;8.27;;;19.80;99.90;;;;;;5055586;28;20120;-86
2023/06/23 04:04:43;;;;;;;11.80;8.93;;;19.80;99.90;;;;;;5055765;28;20021;-85
2023/06/23 04:07:10;;;;;;;12.85;8.40;;;19.80;99.90;;;;;;5056726;28;20261;-86
2023/06/23 04:09:40;;;;;;;13.68;9.00;;;19.80;99.90;;;;;;5054534;28;20082;-85
2023/06/23 04:12:10;;;;;;;14.77;9.40;;;19.90;99.90;;;;;;5055441;28;20047;-86
2023/06/23 04:14:37;;;;;;;16.67;9.95;;;19.80;99.90;;;;;;5054416;28;20029;-86
2023/06/23 04:17:04;;;;;;;16.13;10.32;;;19.80;99.90;;;;;;5054719;28;20021;-86
2023/06/23 04:19:30;;;;;;;15.07;10.68;;;19.80;99.90;;;;;;5055685;28;20072;-86
2023/06/23 04:21:58;;;;;;;16.13;11.23;;;19.80;99.90;;;;;;5055019;28;20032;-85
2023/06/23 04:24:25;;;;;;;18.98;11.40;;;19.90;99.90;;;;;;5054912;28;20366;-85
2023/06/23 04:26:55;;;;;;;16.20;10.85;;;19.90;99.90;;;;;;5054541;28;20116;-85
2023/06/23 04:29:24;;;;;;;18.98;12.40;;;19.90;99.90;;;;;;5054839;28;20035;-85
2023/06/23 04:31:51;;;;;;;20.13;11.55;;;20.00;99.90;;;;;;5054351;28;20025;-86
2023/06/23 04:34:16;;;;;;;15.82;11.38;;;19.90;99.90;;;;;;5054482;28;20115;-86
2023/06/23 04:37:06;;;;;;;19.30;13.02;;;19.90;99.90;;;;;;5055054;28;20064;-84
2023/06/23 04:39:43;;;;;;;17.90;12.05;;;19.90;99.90;;;;;;5055319;28;20032;-83
2023/06/23 04:42:12;;;;;;;20.05;13.50;;;19.90;99.90;;;;;;5054507;28;20565;-82
2023/06/23 04:44:45;;;;;;;19.92;13.95;;;19.90;99.90;;;;;;5054494;28;20036;-83
2023/06/23 04:47:12;;;;;;;19.88;14.15;;;19.90;99.90;;;;;;5054603;28;20078;-83
2023/06/23 04:49:39;;;;;;;21.00;14.40;;;19.90;99.90;;;;;;5053822;28;20037;-84
2023/06/23 04:52:07;;;;;;;22.23;14.20;;;19.90;99.90;;;;;;5054399;28;20028;-83
2023/06/23 04:54:40;;;;;;;23.48;15.27;;;19.90;99.90;;;;;;5054103;28;20028;-84
2023/06/23 04:57:13;;;;;;;22.83;14.68;;;20.00;99.90;;;;;;5054155;28;20528;-84
2023/06/23 04:59:41;;;;;;;24.60;15.70;;;20.00;99.90;;;;;;5053250;28;20482;-84
2023/06/23 05:02:11;;;;;;;30.65;17.85;;;19.90;99.90;;;;;;5054022;28;20116;-84
2023/06/23 05:04:39;;;;;;;23.52;15.43;;;20.00;99.90;;;;;;5054364;28;20076;-84
2023/06/23 05:07:06;;;;;;;24.17;15.73;;;20.10;99.90;;;;;;5053931;28;20063;-84
2023/06/23 05:09:33;;;;;;;24.48;15.77;;;20.00;99.90;;;;;;5054454;28;20120;-83
2023/06/23 05:12:01;;;;;;;25.23;16.05;;;20.10;99.90;;;;;;5053332;28;20025;-84
2023/06/23 05:14:28;;;;;;;28.52;16.95;;;20.00;99.90;;;;;;5053679;28;20036;-84
2023/06/23 05:16:58;;;;;;;26.90;16.05;;;20.00;99.90;;;;;;5053371;28;20021;-83
2023/06/23 05:19:28;;;;;;;26.00;17.52;;;20.00;99.90;;;;;;5054203;28;20041;-86
2023/06/23 05:21:57;;;;;;;27.40;17.45;;;20.00;99.90;;;;;;5054741;28;20100;-86
2023/06/23 05:24:25;;;;;;;27.50;18.05;;;20.00;99.90;;;;;;5053959;28;20351;-86
2023/06/23 05:26:54;;;;;;;28.90;17.02;;;20.00;99.90;;;;;;5053394;28;20090;-86
2023/06/23 05:29:21;;;;;;;29.52;18.30;;;20.00;99.90;;;;;;5053796;28;20093;-86
2023/06/23 05:31:49;;;;;;;26.80;18.25;;;20.10;99.90;;;;;;5053843;28;20048;-86
2023/06/23 05:34:17;;;;;;;26.48;17.50;;;20.10;99.90;;;;;;5054715;28;20120;-86
2023/06/23 05:36:44;;;;;;;28.40;17.40;;;20.10;99.90;;;;;;5053486;28;20120;-84
2023/06/23 05:39:15;;;;;;;29.80;17.80;;;20.10;99.90;;;;;;5054386;28;20033;-84
2023/06/23 05:41:41;;;;;;;30.33;18.60;;;20.10;99.90;;;;;;5053434;28;20063;-84
2023/06/23 05:44:07;;;;;;;30.85;18.85;;;20.10;99.90;;;;;;5053605;28;20029;-84
2023/06/23 05:46:35;;;;;;;33.00;19.92;;;20.10;99.90;;;;;;5054154;28;20028;-84
2023/06/23 05:49:08;;;;;;;28.33;17.85;;;20.20;99.90;;;;;;5054681;28;20465;-85
2023/06/23 05:51:34;;;;;;;29.40;18.48;;;20.20;99.90;;;;;;5054988;28;20104;-85
2023/06/23 05:54:07;;;;;;;31.08;18.58;;;20.30;99.90;;;;;;5053697;28;20021;-84
2023/06/23 05:56:39;;;;;;;27.48;17.60;;;20.40;99.90;;;;;;5054165;28;20025;-83
2023/06/23 05:59:15;;;;;;;32.70;19.63;;;20.40;99.90;;;;;;5053079;28;20045;-84
2023/06/23 06:01:45;;;;;;;30.48;18.45;;;20.40;99.90;;;;;;5053424;28;20092;-85
2023/06/23 06:04:14;;;;;;;28.38;17.88;;;20.40;99.90;;;;;;5054245;28;20031;-85
2023/06/23 06:06:41;;;;;;;30.73;18.75;;;20.40;99.90;;;;;;5054026;28;20021;-84
2023/06/23 06:09:10;;;;;;;30.35;18.45;;;20.50;99.90;;;;;;5054514;28;20029;-83
2023/06/23 06:11:37;;;;;;;30.73;18.23;;;20.50;99.90;;;;;;5055698;28;20055;-85
2023/06/23 06:14:07;;;;;;;28.13;17.48;;;20.40;99.90;;;;;;5053403;28;20025;-86
2023/06/23 06:16:35;;;;;;;30.58;17.50;;;20.40;99.90;;;;;;5053838;28;20519;-87
2023/06/23 06:19:03;;;;;;;24.70;16.95;;;20.40;99.90;;;;;;5053540;28;20044;-85
2023/06/23 06:21:30;;;;;;;29.42;17.58;;;20.40;99.90;;;;;;5053115;28;20029;-86
2023/06/23 06:23:58;;;;;;;28.05;16.48;;;20.40;99.90;;;;;;5053119;28;20442;-85
2023/06/23 06:26:25;;;;;;;25.30;16.15;;;20.50;99.90;;;;;;5053941;28;20051;-85
2023/06/23 06:28:54;;;;;;;26.77;16.63;;;20.50;99.90;;;;;;5038308;28;20146;-84
2023/06/23 06:31:20;;;;;;;24.90;15.75;;;20.50;99.90;;;;;;5024550;28;20029;-84
2023/06/23 06:33:50;;;;;;;24.77;15.77;;;20.50;99.90;;;;;;5026355;28;20054;-83
2023/06/23 06:36:18;;;;;;;22.55;15.27;;;20.50;99.90;;;;;;5026802;28;20021;-85
2023/06/23 06:38:47;;;;;;;24.33;15.60;;;20.50;99.90;;;;;;5028433;28;20025;-85
2023/06/23 06:41:13;;;;;;;21.50;13.90;;;20.50;99.90;;;;;;5021224;28;20042;-85
2023/06/23 06:43:39;;;;;;;24.85;15.30;;;20.40;99.90;;;;;;5036901;28;20025;-85
2023/06/23 06:46:07;;;;;;;26.02;15.75;;;20.30;99.90;;;;;;5024511;28;20087;-85
2023/06/23 06:48:34;;;;;;;24.45;14.80;;;20.30;99.90;;;;;;5027264;28;20037;-85
2023/06/23 06:51:01;;;;;;;22.77;13.77;;;20.40;99.90;;;;;;5038246;28;20034;-85
2023/06/23 06:53:29;;;;;;;21.27;13.32;;;20.40;99.90;;;;;;5035797;28;20033;-84
2023/06/23 06:55:55;;;;;;;21.63;14.25;;;20.40;99.90;;;;;;5046681;28;20021;-85
2023/06/23 06:58:22;;;;;;;23.88;14.57;;;20.40;99.90;;;;;;5030112;28;20029;-84
2023/06/23 07:00:48;;;;;;;27.23;13.20;;;20.40;99.90;;;;;;5025712;28;20079;-85
2023/06/23 07:03:15;;;;;;;22.35;13.07;;;20.40;99.90;;;;;;5049500;28;20028;-86
2023/06/23 07:05:40;;;;;;;19.92;12.13;;;20.40;99.90;;;;;;5029078;28;20033;-83
2023/06/23 07:08:06;;;;;;;21.80;12.70;;;20.50;99.90;;;;;;5029270;28;20047;-87
2023/06/23 07:10:34;;;;;;;21.05;12.93;;;20.60;99.90;;;;;;5036179;28;20059;-86
2023/06/23 07:13:00;;;;;;;19.67;11.80;;;20.60;99.90;;;;;;5044108;28;20440;-85
2023/06/23 07:15:25;;;;;;;18.77;11.18;;;20.70;99.90;;;;;;5042354;28;20125;-84
2023/06/23 07:17:51;;;;;;;19.23;11.82;;;20.80;99.90;;;;;;5054975;28;20044;-83
2023/06/23 07:20:17;;;;;;;19.13;10.80;;;20.90;99.90;;;;;;5042075;28;20033;-85
2023/06/23 07:22:43;;;;;;;19.52;12.20;;;20.90;99.90;;;;;;5054537;28;20037;-83
2023/06/23 07:25:09;;;;;;;17.55;11.23;;;21.00;99.90;;;;;;5056266;28;20488;-88
2023/06/23 07:27:35;;;;;;;18.58;11.85;;;20.90;99.90;;;;;;5056339;28;20029;-88
2023/06/23 07:30:00;;;;;;;18.70;10.88;;;21.00;99.90;;;;;;5054551;28;20044;-86
2023/06/23 07:32:26;;;;;;;16.45;10.90;;;21.00;99.90;;;;;;5054769;28;20029;-86
2023/06/23 07:34:52;;;;;;;15.93;10.07;;;21.00;99.90;;;;;;5054310;28;20025;-85
2023/06/23 07:37:17;;;;;;;16.85;10.68;;;21.10;99.90;;;;;;5048952;28;20025;-88
2023/06/23 07:39:43;;;;;;;17.23;11.10;;;21.00;99.90;;;;;;5037578;28;20029;-86
2023/06/23 07:42:09;;;;;;;14.88;9.73;;;21.00;99.90;;;;;;5039608;28;20033;-86
2023/06/23 07:44:38;;;;;;;17.88;9.80;;;20.90;99.90;;;;;;5055715;28;20017;-86
2023/06/23 07:47:04;;;;;;;17.33;10.25;;;20.90;99.90;;;;;;5054969;28;20127;-85
2023/06/23 07:49:30;;;;;;;15.82;9.05;;;20.90;99.90;;;;;;5033242;28;20060;-87
2023/06/23 07:52:00;;;;;;;15.95;9.25;;;20.90;99.90;;;;;;5032145;28;20111;-85
2023/06/23 07:54:29;;;;;;;13.70;8.95;;;21.00;99.90;;;;;;5050025;28;20032;-84
2023/06/23 07:56:55;;;;;;;19.80;10.35;;;20.90;99.90;;;;;;5053564;28;20035;-85
2023/06/23 07:59:21;;;;;;;16.90;10.00;;;20.90;99.90;;;;;;5053033;28;20103;-85
2023/06/23 08:01:46;;;;;;;13.48;9.73;;;20.90;99.90;;;;;;5044353;28;20033;-85
2023/06/23 08:04:12;;;;;;;13.88;9.32;;;20.90;99.90;;;;;;5055110;28;20100;-85
2023/06/23 08:06:38;;;;;;;14.00;9.27;;;20.90;99.90;;;;;;5054178;28;20037;-87
2023/06/23 08:09:04;;;;;;;14.27;9.70;;;21.00;99.90;;;;;;5040648;28;20033;-85
2023/06/23 08:11:30;;;;;;;11.95;8.70;;;21.20;99.90;;;;;;5054639;28;20025;-85
2023/06/23 08:13:56;;;;;;;12.88;7.75;;;21.40;99.90;;;;;;5043252;28;20021;-85
2023/06/23 08:16:22;;;;;;;13.43;9.10;;;21.50;99.90;;;;;;5040834;28;20032;-87
2023/06/23 08:18:47;;;;;;;13.25;7.70;;;21.70;99.90;;;;;;5054753;28;20119;-85
2023/06/23 08:21:13;;;;;;;15.15;9.38;;;21.90;99.90;;;;;;5049158;28;20036;-89
2023/06/23 08:23:40;;;;;;;11.07;7.55;;;22.00;99.90;;;;;;5037567;28;20029;-86
2023/06/23 08:26:06;;;;;;;12.65;7.70;;;22.10;99.90;;;;;;5053389;28;20022;-86
2023/06/23 08:28:31;;;;;;;14.60;8.25;;;22.20;99.90;;;;;;5040842;28;20033;-87
2023/06/23 08:30:57;;;;;;;10.75;7.13;;;22.20;99.90;;;;;;5054068;28;20032;-87
2023/06/23 08:33:23;;;;;;;11.38;6.32;;;22.20;99.90;;;;;;5054023;28;20028;-86
2023/06/23 08:35:48;;;;;;;8.57;6.32;;;22.30;99.90;;;;;;5047592;28;20355;-85
2023/06/23 08:38:15;;;;;;;10.93;7.43;;;22.20;99.90;;;;;;5048240;28;20110;-88
2023/06/23 08:40:41;;;;;;;11.23;6.95;;;22.30;99.90;;;;;;5053140;28;20383;-83
2023/06/23 08:43:10;;;;;;;8.45;6.60;;;22.20;99.90;;;;;;5041622;28;20024;-83
2023/06/23 08:45:41;;;;;;;9.23;6.00;;;22.10;99.90;;;;;;5044678;28;20025;-85
2023/06/23 08:48:07;;;;;;;9.35;6.25;;;22.10;99.90;;;;;;5043861;28;20029;-86
2023/06/23 08:50:35;;;;;;;9.05;5.97;;;22.10;99.90;;;;;;5054005;28;20048;-80
2023/06/23 08:53:01;;;;;;;8.77;5.78;;;22.10;99.90;;;;;;5028105;28;20040;-82
2023/06/23 08:55:27;;;;;;;9.18;6.10;;;22.20;99.90;;;;;;5054279;28;20028;-85
2023/06/23 08:57:53;;;;;;;7.38;5.00;;;22.20;99.90;;;;;;5042774;28;20036;-85
2023/06/23 09:00:19;;;;;;;7.35;5.45;;;22.30;99.90;;;;;;5032795;28;20049;-86
2023/06/23 09:02:45;;;;;;;8.40;5.05;;;22.40;99.90;;;;;;5032691;28;20530;-86
2023/06/23 09:05:10;;;;;;;6.15;4.75;;;22.40;99.90;;;;;;5033032;28;20075;-81
2023/06/23 09:07:36;;;;;;;7.68;5.00;;;22.30;99.90;;;;;;5033499;28;20088;-84
2023/06/23 09:10:02;;;;;;;7.57;4.63;;;22.30;99.90;;;;;;5032538;28;20114;-84
2023/06/23 09:12:27;;;;;;;8.45;5.20;;;22.40;99.90;;;;;;5033079;28;20033;-83
2023/06/23 09:14:57;;;;;;;7.30;5.00;;;22.40;99.90;;;;;;5020605;28;20029;-85
2023/06/23 09:17:23;;;;;;;7.80;5.40;;;22.50;99.90;;;;;;5028668;28;20022;-87
2023/06/23 09:19:50;;;;;;;6.53;4.60;;;22.50;99.90;;;;;;5025178;28;20061;-81
2023/06/23 09:22:22;;;;;;;6.47;4.55;;;22.40;99.90;;;;;;5032814;28;20467;-86
2023/06/23 09:24:49;;;;;;;8.60;4.80;;;22.30;99.90;;;;;;5021702;28;20026;-81
2023/06/23 09:27:14;;;;;;;10.88;4.60;;;22.30;99.90;;;;;;5034456;28;20021;-82
2023/06/23 09:29:40;;;;;;;10.80;4.70;;;22.40;99.90;;;;;;5032835;28;20033;-82
2023/06/23 09:32:09;;;;;;;9.20;7.30;;;22.60;99.90;;;;;;5033969;28;20029;-90
2023/06/23 09:34:37;;;;;;;7.50;5.05;;;22.80;99.90;;;;;;5034862;28;20047;-86
2023/06/23 09:37:14;;;;;;;7.03;3.83;;;23.00;99.90;;;;;;5032458;28;20025;-83
2023/06/23 09:39:45;;;;;;;7.50;4.25;;;23.10;99.90;;;;;;5032638;28;20079;-83
2023/06/23 09:42:12;;;;;;;4.82;3.70;;;23.00;99.90;;;;;;5032732;28;20033;-86
2023/06/23 09:44:46;;;;;;;8.88;4.00;;;22.90;99.90;;;;;;5019058;28;20036;-83
2023/06/23 09:47:15;;;;;;;6.93;4.03;;;22.90;99.90;;;;;;5026677;28;20482;-82
2023/06/23 09:49:42;;;;;;;5.90;4.35;;;23.00;99.90;;;;;;5033671;28;20375;-88
2023/06/23 09:52:14;;;;;;;5.40;3.80;;;23.10;99.90;;;;;;5026373;28;20030;-80
2023/06/23 09:54:41;;;;;;;5.03;3.63;;;23.10;99.90;;;;;;5028373;28;20211;-86
2023/06/23 09:57:15;;;;;;;6.45;3.47;;;23.30;99.90;;;;;;5032373;28;20033;-88
2023/06/23 09:59:41;;;;;;;6.63;3.38;;;23.50;99.90;;;;;;5043634;28;20057;-85
2023/06/23 10:02:18;;;;;;;5.68;4.40;;;23.70;99.80;;;;;;5033823;28;20024;-78
2023/06/23 10:04:44;;;;;;;6.10;3.20;;;23.70;98.90;;;;;;5036361;28;20051;-80
2023/06/23 10:07:25;;;;;;;6.80;3.58;;;23.60;98.70;;;;;;5051372;28;20078;-85
2023/06/23 10:09:53;;;;;;;3.93;3.13;;;23.50;98.70;;;;;;5052082;28;20090;-87
2023/06/23 10:12:27;;;;;;;5.72;4.00;;;23.50;99.40;;;;;;5051995;28;20029;-90
2023/06/23 10:14:54;;;;;;;6.35;3.35;;;23.30;99.20;;;;;;5036893;28;20021;-90
2023/06/23 10:17:20;;;;;;;5.03;3.75;;;23.20;99.10;;;;;;5053103;28;20098;-88
2023/06/23 10:19:50;;;;;;;4.32;3.10;;;23.20;99.70;;;;;;5052176;28;20490;-85
2023/06/23 10:22:20;;;;;;;4.68;3.10;;;23.30;99.50;;;;;;5040643;28;20057;-90
2023/06/23 10:24:49;;;;;;;3.47;3.10;;;23.60;98.60;;;;;;5019468;28;20108;-82
2023/06/23 10:27:21;;;;;;;4.32;3.13;;;23.70;97.90;;;;;;5035917;28;20359;-90
2023/06/23 10:29:52;;;;;;;4.47;3.20;;;23.70;98.00;;;;;;5035466;28;20064;-83
2023/06/23 10:32:22;;;;;;;5.10;3.13;;;23.60;97.30;;;;;;5053093;28;20025;-83
2023/06/23 10:34:50;;;;;;;3.03;2.47;;;23.60;97.60;;;;;;5053066;28;20504;-90
2023/06/23 10:37:22;;;;;;;3.80;3.28;;;23.60;97.30;;;;;;5034180;28;20025;-81
2023/06/23 10:39:51;;;;;;;4.47;2.90;;;23.70;97.00;;;;;;5037026;28;20033;-86
2023/06/23 10:42:20;;;;;;;4.03;2.78;;;23.80;97.00;;;;;;5048654;28;20025;-89
2023/06/23 10:44:48;;;;;;;4.22;2.78;;;23.90;96.40;;;;;;5039913;28;20127;-85
2023/06/23 10:47:13;;;;;;;4.38;2.70;;;24.00;96.40;;;;;;5047778;28;20021;-87
2023/06/23 10:49:39;;;;;;;6.95;3.10;;;23.90;96.00;;;;;;5033059;28;20037;-85
2023/06/23 10:52:07;;;;;;;7.03;2.60;;;23.80;96.10;;;;;;5047049;28;20089;-86
2023/06/23 10:54:33;;;;;;;4.22;2.95;;;23.70;96.00;;;;;;5054816;28;20139;-85
2023/06/23 10:56:58;;;;;;;6.18;2.80;;;23.70;95.80;;;;;;5040652;28;20029;-78
2023/06/23 10:59:29;;;;;;;4.75;2.90;;;23.70;95.80;;;;;;5036279;28;20532;-84
2023/06/23 11:02:01;;;;;;;5.00;3.00;;;23.70;96.10;;;;;;5056388;28;20055;-85
2023/06/23 11:04:28;;;;;;;3.53;2.28;;;23.70;96.10;;;;;;5055080;28;20033;-91
2023/06/23 11:07:13;;;;;;;4.82;2.75;;;23.80;96.20;;;;;;5055829;28;20151;-84
2023/06/23 11:10:02;;;;;;;6.43;2.42;;;24.00;95.40;;;;;;5050044;28;20477;-85
2023/06/23 11:12:32;;;;;;;4.13;2.55;;;24.20;93.90;;;;;;5038610;28;20135;-84
2023/06/23 11:15:20;;;;;;;3.67;2.30;;;24.30;93.90;;;;;;5028679;28;20030;-80
2023/06/23 11:17:51;;;;;;;3.70;2.47;;;24.40;93.90;;;;;;5056252;28;20088;-87
2023/06/23 11:20:19;;;;;;;4.00;2.70;;;24.40;93.40;;;;;;5056325;28;20461;-85
2023/06/23 11:22:57;;;;;;;2.47;2.17;;;24.40;93.20;;;;;;5042887;28;20040;-84
2023/06/23 11:25:33;;;;;;;3.25;2.13;;;24.30;93.50;;;;;;5054235;28;20029;-85
2023/06/23 11:28:33;;;;;;;3.33;2.13;;;24.20;93.80;;;;;;5049868;28;20037;-85
2023/06/23 11:31:13;;;;;;;3.65;2.10;;;24.30;92.80;;;;;;5038208;28;20119;-85
2023/06/23 11:33:54;;;;;;;2.95;1.98;;;24.40;93.20;;;;;;5056082;28;20473;-88
2023/06/23 11:36:20;;;;;;;;;;;24.50;92.80;;;;;;5036897;28;20045;-83
2023/06/23 11:38:46;;;;;;;2.78;2.00;;;24.60;91.40;;;;;;5026526;28;19967;-86
2023/06/23 11:41:14;;;;;;;2.08;1.85;;;24.80;91.50;;;;;;5035520;28;20489;-79
2023/06/23 11:43:42;;;;;;;2.30;1.85;;;24.90;91.70;;;;;;5029761;28;20036;-81
2023/06/23 11:46:15;;;;;;;4.18;1.92;;;24.90;91.20;;;;;;5054801;28;20029;-86
2023/06/23 11:48:42;;;;;;;2.97;1.92;;;24.80;90.40;;;;;;5038085;28;20294;-90
2023/06/23 11:51:11;;;;;;;2.22;1.90;;;24.80;89.80;;;;;;5037704;28;20457;-89
2023/06/23 11:53:40;;;;;;;2.47;1.70;;;24.80;89.70;;;;;;5036406;28;20029;-92
2023/06/23 11:56:06;;;;;;;2.70;1.95;;;24.80;90.20;;;;;;5054631;28;20021;-85
2023/06/23 11:58:33;;;;;;;3.15;2.30;;;24.90;90.50;;;;;;5037869;28;20049;-92
2023/06/23 12:00:59;;;;;;;3.25;2.22;;;24.90;90.80;;;;;;5037422;28;20041;-93
2023/06/23 12:03:26;;;;;;;5.82;1.83;;;24.90;90.20;;;;;;5037579;28;20230;-88
2023/06/23 12:05:52;;;;;;;2.63;1.98;;;24.90;90.40;;;;;;5037048;28;20033;-82
2023/06/23 12:08:18;;;;;;;5.05;1.83;;;24.80;89.30;;;;;;5054954;28;20094;-80
2023/06/23 12:10:46;;;;;;;4.65;1.83;;;24.90;87.90;;;;;;5049305;28;20025;-82
2023/06/23 12:13:13;;;;;;;2.35;1.90;;;25.10;86.50;;;;;;5048018;28;20025;-83
2023/06/23 12:15:42;;;;;;;2.25;1.65;;;25.30;85.80;;;;;;5036874;28;20083;-83
2023/06/23 12:18:09;;;;;;;3.08;2.45;;;25.40;85.60;;;;;;5054794;28;20029;-83
2023/06/23 12:20:35;;;;;;;3.47;1.80;;;25.40;86.00;;;;;;5054796;28;20114;-84
2023/06/23 12:23:03;;;;;;;2.30;1.83;;;25.60;85.20;;;;;;5054397;28;20032;-84
2023/06/23 12:25:38;;;;;;;2.60;1.90;;;25.60;85.90;;;;;;5056161;28;20036;-83
2023/06/23 12:28:03;;;;;;;3.15;2.17;;;25.60;85.30;;;;;;5039118;28;20420;-84
2023/06/23 12:30:41;;;;;;;2.78;1.77;;;25.70;84.60;;;;;;5037575;28;20032;-84
2023/06/23 12:33:20;;;;;;;3.25;2.00;;;25.70;84.80;;;;;;5052108;28;20362;-83
2023/06/23 12:36:03;;;;;;;4.05;2.38;;;25.80;84.70;;;;;;5053679;28;20036;-85
2023/06/23 12:38:30;;;;;;;3.70;2.35;;;25.70;85.70;;;;;;5050202;28;20083;-85
2023/06/23 12:41:12;;;;;;;3.33;1.80;;;25.60;86.50;;;;;;5054046;28;20033;-85
2023/06/23 12:43:39;;;;;;;2.97;2.13;;;25.40;84.90;;;;;;5040187;28;20033;-84
2023/06/23 12:46:04;;;;;;;4.47;1.80;;;25.40;84.90;;;;;;5042747;28;20017;-87
2023/06/23 12:48:30;;;;;;;2.38;2.00;;;25.40;84.40;;;;;;5053567;28;20029;-86
2023/06/23 12:50:56;;;;;;;3.08;1.95;;;25.40;84.10;;;;;;5051979;28;20039;-86